Terminal Aerodrome Forecast
Issued by NWS

Home | Current Version | Previous Version | Text Only | Print | Product List | Glossary On
Versions: 1 2 3 4 5 6 7 8 9 10 11 12 13 14 15
000
FTUS44 KJAN 240537
TAFHKS
TAF
KHKS 240537Z 2406/2506 00000KT 6SM BR BKN250
     FM241000 00000KT 4SM BR BKN005
     FM241300 16003KT P6SM SCT015
     FM241400 20003KT P6SM SCT030
     FM241600 18004KT P6SM VCTS SCT050CB=

USA.gov is the U.S. government's official web portal to all federal, state and local government web resources and services.